Grand Forks Air Force Base, ND

6:37 PM CDT on April 18, 2015 (GMT -0500)
Grand Forks International | | Change Station
CLOSE
Current Station
Airport
Location: Grand Forks,
Elevation: 843 ft
Nearby Weather Stations

Elev 843 ft 47.95 °N, 97.18 °W | Updated 44 minutes ago

Overcast
Overcast
69 °F
Feels Like 69 °F
N
6
Wind Variable Wind from SSE

Today
High -- | Low -- °F
--% Chance of Precip.
Yesterday
High -- | Low -- °F
Precip. -- in
6:34 AM 8:22 PM
New Moon, 0% visible
Pressure 29.91 in
Visibility 10.0 miles
Clouds Mostly Cloudy 12000 ft
Overcast 20000 ft
Dew Point 25 °F
Humidity 19%
Rainfall 0.00 in
Snow Depth Not available.
UV 1 out of 12
Pollen 9.50 out of 12
Air Quality Not available.
Flu Activity Regional
METAR KGFK 182253Z 16005KT 10SM BKN120 OVC200 21/M04 A2990 RMK AO2 SLP129 T02061039

More Conditions Fewer Conditions

Pressure 29.91 in
Visibility 10.0 miles
Clouds Mostly Cloudy 12000 ft
Overcast 20000 ft
Dew Point 25 °F
Humidity 19%
Rainfall 0.00 in
Snow Depth Not available.
UV 1 out of 12
Pollen 9.50 out of 12
Air Quality Not available.
Flu Activity Regional
METAR KGFK 182253Z 16005KT 10SM BKN120 OVC200 21/M04 A2990 RMK AO2 SLP129 T02061039

More Conditions Fewer Conditions

10-Day Weather Forecast

Almanac

Astronomy

Apr. 18, 2015 Rise Set
Actual Time
Civil Twilight
Nautical Twilight
Astronomical Twilight
Moon
Length of Visible Light
Length of Day
Tomorrow will be .
, % of the Moon is Illuminated

Today's Extremes

State Highs State Lows

Community

WunderPhotos

Upload Photos

1,814,576 photos uploaded!

WunderBlogs® & News

Nearby

Air Quality

  Air Quality AQ Index Pollutant
Not available.

Snow Depth

Station Depth Elevation

Earthquake Activity

City Distance Mag. Time & Date
Minimum magnitude displayed is 2.5.

Coastal Water Temperatures

Place Temperature

Stations

Nearby Weather Stations

Station Location Temp. Windchill Dew Point Humidity Wind Precip. Elev Updated Type